sensor_id;sensor_type;location;lat;lon;timestamp;temperature;humidity
47338;DHT22;33069;51.970;5.892;2022-09-03T00:00:49;18.50;50.80
47338;DHT22;33069;51.970;5.892;2022-09-03T00:03:32;18.40;51.60
47338;DHT22;33069;51.970;5.892;2022-09-03T00:06:19;18.40;51.40
47338;DHT22;33069;51.970;5.892;2022-09-03T00:11:26;18.20;52.00
47338;DHT22;33069;51.970;5.892;2022-09-03T00:14:03;18.20;51.90
47338;DHT22;33069;51.970;5.892;2022-09-03T00:16:44;18.10;51.90
47338;DHT22;33069;51.970;5.892;2022-09-03T00:19:17;18.10;52.20
47338;DHT22;33069;51.970;5.892;2022-09-03T00:21:50;18.10;52.00
47338;DHT22;33069;51.970;5.892;2022-09-03T00:24:18;18.00;52.10
47338;DHT22;33069;51.970;5.892;2022-09-03T00:26:55;18.10;52.00
47338;DHT22;33069;51.970;5.892;2022-09-03T00:29:38;18.00;52.50
47338;DHT22;33069;51.970;5.892;2022-09-03T00:32:12;18.00;52.30
47338;DHT22;33069;51.970;5.892;2022-09-03T00:34:44;17.80;52.70
47338;DHT22;33069;51.970;5.892;2022-09-03T00:37:11;17.80;52.90
47338;DHT22;33069;51.970;5.892;2022-09-03T00:39:37;17.80;53.00
47338;DHT22;33069;51.970;5.892;2022-09-03T00:45:09;17.80;52.90
47338;DHT22;33069;51.970;5.892;2022-09-03T00:48:13;17.80;52.90
47338;DHT22;33069;51.970;5.892;2022-09-03T00:51:25;17.50;53.80
47338;DHT22;33069;51.970;5.892;2022-09-03T00:59:46;17.50;54.20
47338;DHT22;33069;51.970;5.892;2022-09-03T01:08:29;17.60;54.20
47338;DHT22;33069;51.970;5.892;2022-09-03T01:13:55;17.40;54.40
47338;DHT22;33069;51.970;5.892;2022-09-03T01:16:38;17.50;54.20
47338;DHT22;33069;51.970;5.892;2022-09-03T01:22:13;17.40;54.20
47338;DHT22;33069;51.970;5.892;2022-09-03T01:25:14;17.50;54.50
47338;DHT22;33069;51.970;5.892;2022-09-03T01:33:40;17.30;54.90
47338;DHT22;33069;51.970;5.892;2022-09-03T01:36:19;17.40;54.30
47338;DHT22;33069;51.970;5.892;2022-09-03T01:39:00;17.40;54.30
47338;DHT22;33069;51.970;5.892;2022-09-03T01:41:47;17.20;54.80
47338;DHT22;33069;51.970;5.892;2022-09-03T01:56:21;17.20;54.90
47338;DHT22;33069;51.970;5.892;2022-09-03T01:58:55;16.90;55.80
47338;DHT22;33069;51.970;5.892;2022-09-03T02:01:38;16.90;56.00
47338;DHT22;33069;51.970;5.892;2022-09-03T02:04:17;17.00;55.60
47338;DHT22;33069;51.970;5.892;2022-09-03T02:06:45;16.90;55.90
47338;DHT22;33069;51.970;5.892;2022-09-03T02:09:12;16.80;55.70
47338;DHT22;33069;51.970;5.892;2022-09-03T02:11:38;17.00;56.20
47338;DHT22;33069;51.970;5.892;2022-09-03T02:14:05;16.90;56.20
47338;DHT22;33069;51.970;5.892;2022-09-03T02:16:32;17.00;55.60
47338;DHT22;33069;51.970;5.892;2022-09-03T02:19:09;16.90;55.60
47338;DHT22;33069;51.970;5.892;2022-09-03T02:21:39;16.90;56.00
47338;DHT22;33069;51.970;5.892;2022-09-03T02:24:08;16.80;55.90
47338;DHT22;33069;51.970;5.892;2022-09-03T02:26:34;16.90;56.20
47338;DHT22;33069;51.970;5.892;2022-09-03T02:29:02;16.80;56.30
47338;DHT22;33069;51.970;5.892;2022-09-03T02:31:28;16.80;56.20
47338;DHT22;33069;51.970;5.892;2022-09-03T02:33:55;16.90;55.80
47338;DHT22;33069;51.970;5.892;2022-09-03T02:36:35;16.80;56.20
47338;DHT22;33069;51.970;5.892;2022-09-03T02:39:02;16.70;56.70
47338;DHT22;33069;51.970;5.892;2022-09-03T02:41:27;16.70;56.60
47338;DHT22;33069;51.970;5.892;2022-09-03T02:47:00;16.70;56.90
47338;DHT22;33069;51.970;5.892;2022-09-03T02:49:26;16.60;56.90
47338;DHT22;33069;51.970;5.892;2022-09-03T02:51:57;16.50;57.30
47338;DHT22;33069;51.970;5.892;2022-09-03T02:54:23;16.40;57.40
47338;DHT22;33069;51.970;5.892;2022-09-03T02:56:49;16.40;57.20
47338;DHT22;33069;51.970;5.892;2022-09-03T02:59:14;16.50;57.10
47338;DHT22;33069;51.970;5.892;2022-09-03T03:01:42;16.60;57.00
47338;DHT22;33069;51.970;5.892;2022-09-03T03:04:08;16.40;57.30
47338;DHT22;33069;51.970;5.892;2022-09-03T03:06:33;16.40;57.30
47338;DHT22;33069;51.970;5.892;2022-09-03T03:08:59;16.60;57.00
47338;DHT22;33069;51.970;5.892;2022-09-03T03:11:26;16.50;57.20
47338;DHT22;33069;51.970;5.892;2022-09-03T03:13:52;16.60;56.70
47338;DHT22;33069;51.970;5.892;2022-09-03T03:16:18;16.40;57.50
47338;DHT22;33069;51.970;5.892;2022-09-03T03:18:44;16.50;57.10
47338;DHT22;33069;51.970;5.892;2022-09-03T03:21:14;16.50;56.80
47338;DHT22;33069;51.970;5.892;2022-09-03T03:23:41;16.50;56.80
47338;DHT22;33069;51.970;5.892;2022-09-03T03:26:13;16.40;57.40
47338;DHT22;33069;51.970;5.892;2022-09-03T03:28:39;16.30;57.60
47338;DHT22;33069;51.970;5.892;2022-09-03T03:31:12;16.20;57.70
47338;DHT22;33069;51.970;5.892;2022-09-03T03:33:39;16.20;57.80
47338;DHT22;33069;51.970;5.892;2022-09-03T03:36:25;16.20;57.80
47338;DHT22;33069;51.970;5.892;2022-09-03T03:38:55;16.00;58.50
47338;DHT22;33069;51.970;5.892;2022-09-03T03:41:29;16.20;57.80
47338;DHT22;33069;51.970;5.892;2022-09-03T03:44:04;16.10;58.20
47338;DHT22;33069;51.970;5.892;2022-09-03T03:46:36;16.00;58.20
47338;DHT22;33069;51.970;5.892;2022-09-03T03:49:03;16.10;58.80
47338;DHT22;33069;51.970;5.892;2022-09-03T03:51:31;16.00;58.60
47338;DHT22;33069;51.970;5.892;2022-09-03T03:53:57;16.20;57.80
47338;DHT22;33069;51.970;5.892;2022-09-03T03:56:24;16.10;58.00
47338;DHT22;33069;51.970;5.892;2022-09-03T03:58:52;16.20;58.10
47338;DHT22;33069;51.970;5.892;2022-09-03T04:01:20;16.20;58.10
47338;DHT22;33069;51.970;5.892;2022-09-03T04:03:46;16.10;57.90
47338;DHT22;33069;51.970;5.892;2022-09-03T04:06:14;16.10;57.90
47338;DHT22;33069;51.970;5.892;2022-09-03T04:08:42;16.30;57.80
47338;DHT22;33069;51.970;5.892;2022-09-03T04:11:11;16.30;57.50
47338;DHT22;33069;51.970;5.892;2022-09-03T04:13:39;16.20;57.50
47338;DHT22;33069;51.970;5.892;2022-09-03T04:16:10;16.20;57.50
47338;DHT22;33069;51.970;5.892;2022-09-03T04:18:37;16.10;58.00
47338;DHT22;33069;51.970;5.892;2022-09-03T04:21:17;16.00;58.30
47338;DHT22;33069;51.970;5.892;2022-09-03T04:23:45;16.00;58.20
47338;DHT22;33069;51.970;5.892;2022-09-03T04:26:19;16.00;58.40
47338;DHT22;33069;51.970;5.892;2022-09-03T04:28:46;15.80;58.90
47338;DHT22;33069;51.970;5.892;2022-09-03T04:31:13;15.90;58.70
47338;DHT22;33069;51.970;5.892;2022-09-03T04:33:40;15.90;58.80
47338;DHT22;33069;51.970;5.892;2022-09-03T04:36:07;15.80;59.40
47338;DHT22;33069;51.970;5.892;2022-09-03T04:38:34;15.80;59.00
47338;DHT22;33069;51.970;5.892;2022-09-03T04:41:00;15.70;59.50
47338;DHT22;33069;51.970;5.892;2022-09-03T04:43:27;15.60;60.00
47338;DHT22;33069;51.970;5.892;2022-09-03T04:45:58;15.70;59.50
47338;DHT22;33069;51.970;5.892;2022-09-03T04:48:24;15.70;59.60
47338;DHT22;33069;51.970;5.892;2022-09-03T04:50:50;15.60;59.80
47338;DHT22;33069;51.970;5.892;2022-09-03T04:53:15;15.60;59.60
47338;DHT22;33069;51.970;5.892;2022-09-03T04:55:41;15.60;59.80
47338;DHT22;33069;51.970;5.892;2022-09-03T04:58:07;15.60;59.70
47338;DHT22;33069;51.970;5.892;2022-09-03T05:00:34;15.70;59.50
47338;DHT22;33069;51.970;5.892;2022-09-03T05:03:00;15.70;59.30
47338;DHT22;33069;51.970;5.892;2022-09-03T05:05:26;15.70;59.60
47338;DHT22;33069;51.970;5.892;2022-09-03T05:07:51;15.60;59.80
47338;DHT22;33069;51.970;5.892;2022-09-03T05:10:18;15.60;59.70
47338;DHT22;33069;51.970;5.892;2022-09-03T05:12:58;15.70;59.40
47338;DHT22;33069;51.970;5.892;2022-09-03T05:15:23;15.60;59.70
47338;DHT22;33069;51.970;5.892;2022-09-03T05:17:49;15.50;59.50
47338;DHT22;33069;51.970;5.892;2022-09-03T05:20:18;15.60;59.60
47338;DHT22;33069;51.970;5.892;2022-09-03T05:22:44;15.40;60.10
47338;DHT22;33069;51.970;5.892;2022-09-03T05:25:09;15.50;59.90
47338;DHT22;33069;51.970;5.892;2022-09-03T05:27:35;15.60;59.70
47338;DHT22;33069;51.970;5.892;2022-09-03T05:30:00;15.60;59.60
47338;DHT22;33069;51.970;5.892;2022-09-03T05:32:29;15.70;59.30
47338;DHT22;33069;51.970;5.892;2022-09-03T05:34:55;15.50;59.80
47338;DHT22;33069;51.970;5.892;2022-09-03T05:37:21;15.70;59.30
47338;DHT22;33069;51.970;5.892;2022-09-03T05:39:48;15.60;59.40
47338;DHT22;33069;51.970;5.892;2022-09-03T05:42:13;15.70;59.40
47338;DHT22;33069;51.970;5.892;2022-09-03T05:44:39;15.60;59.60
47338;DHT22;33069;51.970;5.892;2022-09-03T05:47:05;15.70;59.20
47338;DHT22;33069;51.970;5.892;2022-09-03T05:49:31;15.80;58.90
47338;DHT22;33069;51.970;5.892;2022-09-03T05:51:57;15.80;58.60
47338;DHT22;33069;51.970;5.892;2022-09-03T05:54:22;15.80;58.80
47338;DHT22;33069;51.970;5.892;2022-09-03T05:56:48;15.80;59.20
47338;DHT22;33069;51.970;5.892;2022-09-03T05:59:14;15.70;59.50
47338;DHT22;33069;51.970;5.892;2022-09-03T06:01:44;15.90;58.80
47338;DHT22;33069;51.970;5.892;2022-09-03T06:04:14;15.80;59.00
47338;DHT22;33069;51.970;5.892;2022-09-03T06:06:43;15.90;58.80
47338;DHT22;33069;51.970;5.892;2022-09-03T06:09:17;15.90;58.60
47338;DHT22;33069;51.970;5.892;2022-09-03T06:11:44;16.10;58.80
47338;DHT22;33069;51.970;5.892;2022-09-03T06:14:11;16.00;59.00
47338;DHT22;33069;51.970;5.892;2022-09-03T06:16:43;15.90;59.40
47338;DHT22;33069;51.970;5.892;2022-09-03T06:19:10;16.10;58.70
47338;DHT22;33069;51.970;5.892;2022-09-03T06:21:42;16.20;58.40
47338;DHT22;33069;51.970;5.892;2022-09-03T06:24:19;16.30;58.40
47338;DHT22;33069;51.970;5.892;2022-09-03T06:26:47;16.20;58.50
47338;DHT22;33069;51.970;5.892;2022-09-03T06:29:13;16.30;58.70
47338;DHT22;33069;51.970;5.892;2022-09-03T06:31:39;16.20;58.80
47338;DHT22;33069;51.970;5.892;2022-09-03T06:34:05;16.30;58.50
47338;DHT22;33069;51.970;5.892;2022-09-03T06:36:31;16.40;58.40
47338;DHT22;33069;51.970;5.892;2022-09-03T06:38:57;16.50;57.90
47338;DHT22;33069;51.970;5.892;2022-09-03T06:41:25;16.70;57.80
47338;DHT22;33069;51.970;5.892;2022-09-03T06:43:57;16.60;58.10
47338;DHT22;33069;51.970;5.892;2022-09-03T06:46:34;16.70;58.10
47338;DHT22;33069;51.970;5.892;2022-09-03T06:49:00;16.60;58.40
47338;DHT22;33069;51.970;5.892;2022-09-03T06:51:28;16.60;58.20
47338;DHT22;33069;51.970;5.892;2022-09-03T06:54:07;16.70;57.90
47338;DHT22;33069;51.970;5.892;2022-09-03T06:56:35;16.80;58.00
47338;DHT22;33069;51.970;5.892;2022-09-03T06:59:07;16.90;57.30
47338;DHT22;33069;51.970;5.892;2022-09-03T07:01:33;16.80;57.80
47338;DHT22;33069;51.970;5.892;2022-09-03T07:04:04;16.80;57.60
47338;DHT22;33069;51.970;5.892;2022-09-03T07:06:35;17.20;56.80
47338;DHT22;33069;51.970;5.892;2022-09-03T07:09:02;17.10;57.40
47338;DHT22;33069;51.970;5.892;2022-09-03T07:11:29;17.10;57.30
47338;DHT22;33069;51.970;5.892;2022-09-03T07:13:58;17.00;57.80
47338;DHT22;33069;51.970;5.892;2022-09-03T07:16:29;17.10;57.50
47338;DHT22;33069;51.970;5.892;2022-09-03T07:18:55;17.00;57.90
47338;DHT22;33069;51.970;5.892;2022-09-03T07:21:25;17.20;57.90
47338;DHT22;33069;51.970;5.892;2022-09-03T07:23:52;17.30;57.00
47338;DHT22;33069;51.970;5.892;2022-09-03T07:26:27;17.40;57.20
47338;DHT22;33069;51.970;5.892;2022-09-03T07:28:53;17.40;57.80
47338;DHT22;33069;51.970;5.892;2022-09-03T07:31:22;17.60;56.50
47338;DHT22;33069;51.970;5.892;2022-09-03T07:33:52;17.80;55.80
47338;DHT22;33069;51.970;5.892;2022-09-03T07:36:19;17.70;56.70
47338;DHT22;33069;51.970;5.892;2022-09-03T07:38:45;17.90;56.10
47338;DHT22;33069;51.970;5.892;2022-09-03T07:41:12;18.00;56.30
47338;DHT22;33069;51.970;5.892;2022-09-03T07:43:40;17.90;55.70
47338;DHT22;33069;51.970;5.892;2022-09-03T07:46:10;18.00;55.70
47338;DHT22;33069;51.970;5.892;2022-09-03T07:48:40;18.20;55.10
47338;DHT22;33069;51.970;5.892;2022-09-03T07:51:06;18.20;54.40
47338;DHT22;33069;51.970;5.892;2022-09-03T07:53:33;18.30;54.70
47338;DHT22;33069;51.970;5.892;2022-09-03T07:56:04;18.40;54.20
47338;DHT22;33069;51.970;5.892;2022-09-03T07:58:31;18.60;53.90
47338;DHT22;33069;51.970;5.892;2022-09-03T08:00:57;18.50;54.50
47338;DHT22;33069;51.970;5.892;2022-09-03T08:03:23;18.50;54.80
47338;DHT22;33069;51.970;5.892;2022-09-03T08:05:49;18.80;54.20
47338;DHT22;33069;51.970;5.892;2022-09-03T08:08:14;18.80;53.60
47338;DHT22;33069;51.970;5.892;2022-09-03T08:10:42;19.00;53.60
47338;DHT22;33069;51.970;5.892;2022-09-03T08:13:09;19.20;52.70
47338;DHT22;33069;51.970;5.892;2022-09-03T08:15:35;19.20;52.60
47338;DHT22;33069;51.970;5.892;2022-09-03T08:18:02;19.30;52.40
47338;DHT22;33069;51.970;5.892;2022-09-03T08:20:28;19.50;51.50
47338;DHT22;33069;51.970;5.892;2022-09-03T08:23:01;19.50;51.60
47338;DHT22;33069;51.970;5.892;2022-09-03T08:25:27;19.50;51.90
47338;DHT22;33069;51.970;5.892;2022-09-03T08:27:53;19.80;51.10
47338;DHT22;33069;51.970;5.892;2022-09-03T08:30:18;19.90;51.20
47338;DHT22;33069;51.970;5.892;2022-09-03T08:32:45;19.80;50.40
47338;DHT22;33069;51.970;5.892;2022-09-03T08:35:12;20.00;50.10
47338;DHT22;33069;51.970;5.892;2022-09-03T08:37:37;20.00;51.00
47338;DHT22;33069;51.970;5.892;2022-09-03T08:40:04;20.10;50.10
47338;DHT22;33069;51.970;5.892;2022-09-03T08:43:06;20.30;49.40
47338;DHT22;33069;51.970;5.892;2022-09-03T08:45:35;20.40;49.10
47338;DHT22;33069;51.970;5.892;2022-09-03T08:48:18;20.30;49.10
47338;DHT22;33069;51.970;5.892;2022-09-03T08:50:47;20.50;49.30
47338;DHT22;33069;51.970;5.892;2022-09-03T08:58:18;21.00;48.40
47338;DHT22;33069;51.970;5.892;2022-09-03T09:14:24;21.40;47.30
47338;DHT22;33069;51.970;5.892;2022-09-03T09:22:27;21.70;46.70
47338;DHT22;33069;51.970;5.892;2022-09-03T09:24:55;21.60;46.10
47338;DHT22;33069;51.970;5.892;2022-09-03T09:27:23;21.70;46.50
47338;DHT22;33069;51.970;5.892;2022-09-03T09:29:50;21.70;46.60
47338;DHT22;33069;51.970;5.892;2022-09-03T09:32:18;21.80;46.00
47338;DHT22;33069;51.970;5.892;2022-09-03T09:34:45;21.90;46.20
47338;DHT22;33069;51.970;5.892;2022-09-03T09:37:15;22.00;45.80
47338;DHT22;33069;51.970;5.892;2022-09-03T09:39:56;22.00;45.80
47338;DHT22;33069;51.970;5.892;2022-09-03T09:42:23;22.10;46.30
47338;DHT22;33069;51.970;5.892;2022-09-03T09:44:49;22.20;46.30
47338;DHT22;33069;51.970;5.892;2022-09-03T09:47:25;22.30;45.60
47338;DHT22;33069;51.970;5.892;2022-09-03T09:49:57;22.40;45.00
47338;DHT22;33069;51.970;5.892;2022-09-03T09:52:25;22.50;44.80
47338;DHT22;33069;51.970;5.892;2022-09-03T09:55:04;22.50;44.80
47338;DHT22;33069;51.970;5.892;2022-09-03T09:57:32;22.60;45.90
47338;DHT22;33069;51.970;5.892;2022-09-03T10:00:09;22.50;44.30
47338;DHT22;33069;51.970;5.892;2022-09-03T10:02:38;22.60;45.00
47338;DHT22;33069;51.970;5.892;2022-09-03T10:05:27;23.00;44.20
47338;DHT22;33069;51.970;5.892;2022-09-03T10:08:00;23.00;44.00
47338;DHT22;33069;51.970;5.892;2022-09-03T10:10:27;23.10;44.00
47338;DHT22;33069;51.970;5.892;2022-09-03T10:13:17;23.10;44.20
47338;DHT22;33069;51.970;5.892;2022-09-03T10:21:19;23.20;43.50
47338;DHT22;33069;51.970;5.892;2022-09-03T10:26:41;23.40;43.40
47338;DHT22;33069;51.970;5.892;2022-09-03T10:29:07;23.30;44.10
47338;DHT22;33069;51.970;5.892;2022-09-03T10:31:54;23.40;43.50
47338;DHT22;33069;51.970;5.892;2022-09-03T10:37:46;23.70;42.70
47338;DHT22;33069;51.970;5.892;2022-09-03T10:40:27;23.70;42.70
47338;DHT22;33069;51.970;5.892;2022-09-03T10:45:48;23.90;42.70
47338;DHT22;33069;51.970;5.892;2022-09-03T10:50:54;24.20;42.50
47338;DHT22;33069;51.970;5.892;2022-09-03T10:56:41;24.40;41.50
47338;DHT22;33069;51.970;5.892;2022-09-03T10:59:19;24.40;41.40
47338;DHT22;33069;51.970;5.892;2022-09-03T11:08:22;24.80;40.50
47338;DHT22;33069;51.970;5.892;2022-09-03T11:10:27;24.60;40.60
47338;DHT22;33069;51.970;5.892;2022-09-03T11:13:08;24.70;40.80
47338;DHT22;33069;51.970;5.892;2022-09-03T11:16:08;24.70;41.00
47338;DHT22;33069;51.970;5.892;2022-09-03T11:18:48;24.60;41.30
47338;DHT22;33069;51.970;5.892;2022-09-03T11:21:20;25.00;40.10
47338;DHT22;33069;51.970;5.892;2022-09-03T11:24:00;25.00;40.40
47338;DHT22;33069;51.970;5.892;2022-09-03T11:26:26;24.90;40.10
47338;DHT22;33069;51.970;5.892;2022-09-03T11:29:10;25.00;40.20
47338;DHT22;33069;51.970;5.892;2022-09-03T11:31:47;24.90;40.80
47338;DHT22;33069;51.970;5.892;2022-09-03T11:36:50;24.70;41.10
47338;DHT22;33069;51.970;5.892;2022-09-03T11:39:23;24.80;41.30
47338;DHT22;33069;51.970;5.892;2022-09-03T11:42:11;24.90;41.00
47338;DHT22;33069;51.970;5.892;2022-09-03T11:44:45;25.20;40.70
47338;DHT22;33069;51.970;5.892;2022-09-03T11:47:22;25.40;40.30
47338;DHT22;33069;51.970;5.892;2022-09-03T11:49:50;25.20;40.20
47338;DHT22;33069;51.970;5.892;2022-09-03T11:52:30;25.20;40.10
47338;DHT22;33069;51.970;5.892;2022-09-03T11:55:05;25.10;39.60
47338;DHT22;33069;51.970;5.892;2022-09-03T11:57:33;25.00;40.30
47338;DHT22;33069;51.970;5.892;2022-09-03T12:00:10;25.10;40.50
47338;DHT22;33069;51.970;5.892;2022-09-03T12:02:43;25.20;40.80
47338;DHT22;33069;51.970;5.892;2022-09-03T12:08:23;25.70;39.90
47338;DHT22;33069;51.970;5.892;2022-09-03T12:11:03;25.80;39.60
47338;DHT22;33069;51.970;5.892;2022-09-03T12:13:59;25.80;38.90
47338;DHT22;33069;51.970;5.892;2022-09-03T12:17:16;25.70;39.50
47338;DHT22;33069;51.970;5.892;2022-09-03T12:19:57;25.70;41.00
47338;DHT22;33069;51.970;5.892;2022-09-03T12:22:26;25.80;39.90
47338;DHT22;33069;51.970;5.892;2022-09-03T12:25:09;26.10;39.50
47338;DHT22;33069;51.970;5.892;2022-09-03T12:27:36;26.20;39.00
47338;DHT22;33069;51.970;5.892;2022-09-03T12:30:04;26.30;38.90
47338;DHT22;33069;51.970;5.892;2022-09-03T12:32:33;26.40;38.60
47338;DHT22;33069;51.970;5.892;2022-09-03T12:35:12;26.20;39.20
47338;DHT22;33069;51.970;5.892;2022-09-03T12:37:38;26.40;38.70
47338;DHT22;33069;51.970;5.892;2022-09-03T12:40:16;26.50;38.60
47338;DHT22;33069;51.970;5.892;2022-09-03T12:42:43;26.60;39.00
47338;DHT22;33069;51.970;5.892;2022-09-03T12:45:09;26.50;38.50
47338;DHT22;33069;51.970;5.892;2022-09-03T12:47:41;26.40;39.30
47338;DHT22;33069;51.970;5.892;2022-09-03T12:50:14;26.50;39.60
47338;DHT22;33069;51.970;5.892;2022-09-03T12:53:00;26.70;39.40
47338;DHT22;33069;51.970;5.892;2022-09-03T12:55:52;26.90;38.70
47338;DHT22;33069;51.970;5.892;2022-09-03T12:58:32;26.90;38.00
47338;DHT22;33069;51.970;5.892;2022-09-03T13:01:14;26.80;38.70
47338;DHT22;33069;51.970;5.892;2022-09-03T13:03:48;26.70;39.50
47338;DHT22;33069;51.970;5.892;2022-09-03T13:06:19;26.60;39.90
47338;DHT22;33069;51.970;5.892;2022-09-03T13:08:52;26.70;39.10
47338;DHT22;33069;51.970;5.892;2022-09-03T13:11:21;26.80;38.50
47338;DHT22;33069;51.970;5.892;2022-09-03T13:14:03;27.00;38.90
47338;DHT22;33069;51.970;5.892;2022-09-03T13:16:47;27.20;38.00
47338;DHT22;33069;51.970;5.892;2022-09-03T13:30:12;27.70;37.40
47338;DHT22;33069;51.970;5.892;2022-09-03T13:33:01;27.50;37.70
47338;DHT22;33069;51.970;5.892;2022-09-03T13:38:07;27.20;38.60
47338;DHT22;33069;51.970;5.892;2022-09-03T13:40:45;26.90;38.50
47338;DHT22;33069;51.970;5.892;2022-09-03T13:46:30;27.30;38.50
47338;DHT22;33069;51.970;5.892;2022-09-03T13:48:47;27.10;39.70
47338;DHT22;33069;51.970;5.892;2022-09-03T13:51:49;27.30;39.10
47338;DHT22;33069;51.970;5.892;2022-09-03T13:54:23;27.10;39.30
47338;DHT22;33069;51.970;5.892;2022-09-03T13:59:53;27.20;38.30
47338;DHT22;33069;51.970;5.892;2022-09-03T14:05:24;27.60;38.40
47338;DHT22;33069;51.970;5.892;2022-09-03T14:08:14;27.80;36.70
47338;DHT22;33069;51.970;5.892;2022-09-03T14:10:59;28.10;36.90
47338;DHT22;33069;51.970;5.892;2022-09-03T14:21:46;27.80;37.70
47338;DHT22;33069;51.970;5.892;2022-09-03T14:24:28;27.90;36.30
47338;DHT22;33069;51.970;5.892;2022-09-03T14:27:00;28.20;36.90
47338;DHT22;33069;51.970;5.892;2022-09-03T14:29:31;27.90;35.80
47338;DHT22;33069;51.970;5.892;2022-09-03T14:41:02;28.30;36.20
47338;DHT22;33069;51.970;5.892;2022-09-03T14:43:54;28.30;35.50
47338;DHT22;33069;51.970;5.892;2022-09-03T14:46:43;28.20;36.20
47338;DHT22;33069;51.970;5.892;2022-09-03T14:52:32;28.30;34.60
47338;DHT22;33069;51.970;5.892;2022-09-03T14:55:08;28.20;35.30
47338;DHT22;33069;51.970;5.892;2022-09-03T15:00:32;28.40;35.70
47338;DHT22;33069;51.970;5.892;2022-09-03T15:08:42;28.60;35.70
47338;DHT22;33069;51.970;5.892;2022-09-03T15:11:16;28.70;35.00
47338;DHT22;33069;51.970;5.892;2022-09-03T15:13:50;28.90;34.10
47338;DHT22;33069;51.970;5.892;2022-09-03T15:16:46;28.80;34.60
47338;DHT22;33069;51.970;5.892;2022-09-03T15:22:35;28.80;34.70
47338;DHT22;33069;51.970;5.892;2022-09-03T15:28:01;28.90;34.90
47338;DHT22;33069;51.970;5.892;2022-09-03T15:30:44;28.60;34.00
47338;DHT22;33069;51.970;5.892;2022-09-03T15:33:16;28.90;33.60
47338;DHT22;33069;51.970;5.892;2022-09-03T15:38:48;29.20;33.60
47338;DHT22;33069;51.970;5.892;2022-09-03T15:44:00;29.10;34.20
47338;DHT22;33069;51.970;5.892;2022-09-03T15:55:31;29.30;33.10
47338;DHT22;33069;51.970;5.892;2022-09-03T15:58:24;29.40;32.40
47338;DHT22;33069;51.970;5.892;2022-09-03T16:15:19;28.90;34.10
47338;DHT22;33069;51.970;5.892;2022-09-03T16:20:26;28.60;34.90
47338;DHT22;33069;51.970;5.892;2022-09-03T16:28:28;28.80;34.60
47338;DHT22;33069;51.970;5.892;2022-09-03T16:33:56;28.60;35.10
47338;DHT22;33069;51.970;5.892;2022-09-03T16:36:51;28.60;35.10
47338;DHT22;33069;51.970;5.892;2022-09-03T16:39:29;28.50;35.30
47338;DHT22;33069;51.970;5.892;2022-09-03T16:50:19;28.20;36.10
47338;DHT22;33069;51.970;5.892;2022-09-03T16:56:06;27.70;37.60
47338;DHT22;33069;51.970;5.892;2022-09-03T17:18:21;26.60;41.60
47338;DHT22;33069;51.970;5.892;2022-09-03T17:32:20;26.90;42.10
47338;DHT22;33069;51.970;5.892;2022-09-03T17:44:05;27.00;41.80
47338;DHT22;33069;51.970;5.892;2022-09-03T17:49:05;26.70;42.70
47338;DHT22;33069;51.970;5.892;2022-09-03T17:51:38;26.40;43.10
47338;DHT22;33069;51.970;5.892;2022-09-03T17:56:53;26.00;43.90
47338;DHT22;33069;51.970;5.892;2022-09-03T18:05:52;25.70;44.70
47338;DHT22;33069;51.970;5.892;2022-09-03T18:16:31;25.20;45.80
47338;DHT22;33069;51.970;5.892;2022-09-03T18:19:02;25.20;45.90
47338;DHT22;33069;51.970;5.892;2022-09-03T18:21:35;25.00;46.60
47338;DHT22;33069;51.970;5.892;2022-09-03T18:27:21;24.70;47.70
47338;DHT22;33069;51.970;5.892;2022-09-03T18:30:09;24.50;48.20
47338;DHT22;33069;51.970;5.892;2022-09-03T18:32:54;24.40;48.50
47338;DHT22;33069;51.970;5.892;2022-09-03T18:35:42;24.30;48.60
47338;DHT22;33069;51.970;5.892;2022-09-03T18:38:30;24.30;48.70
47338;DHT22;33069;51.970;5.892;2022-09-03T18:41:44;24.40;48.30
47338;DHT22;33069;51.970;5.892;2022-09-03T18:50:43;24.20;49.70
47338;DHT22;33069;51.970;5.892;2022-09-03T18:56:51;24.00;49.90
47338;DHT22;33069;51.970;5.892;2022-09-03T19:00:05;23.80;50.50
47338;DHT22;33069;51.970;5.892;2022-09-03T19:03:03;23.70;50.80
47338;DHT22;33069;51.970;5.892;2022-09-03T19:08:54;23.30;51.80
47338;DHT22;33069;51.970;5.892;2022-09-03T19:20:13;22.70;53.90
47338;DHT22;33069;51.970;5.892;2022-09-03T19:23:02;22.50;54.90
47338;DHT22;33069;51.970;5.892;2022-09-03T19:25:46;22.50;57.10
47338;DHT22;33069;51.970;5.892;2022-09-03T19:28:35;22.40;57.50
47338;DHT22;33069;51.970;5.892;2022-09-03T19:37:39;22.10;57.30
47338;DHT22;33069;51.970;5.892;2022-09-03T19:46:45;21.90;57.50
47338;DHT22;33069;51.970;5.892;2022-09-03T19:55:43;21.90;60.80
47338;DHT22;33069;51.970;5.892;2022-09-03T19:58:30;21.80;61.10
47338;DHT22;33069;51.970;5.892;2022-09-03T20:01:16;21.90;60.00
47338;DHT22;33069;51.970;5.892;2022-09-03T20:04:13;21.80;59.90
47338;DHT22;33069;51.970;5.892;2022-09-03T20:07:00;21.80;59.70
47338;DHT22;33069;51.970;5.892;2022-09-03T20:09:47;21.70;59.60
47338;DHT22;33069;51.970;5.892;2022-09-03T20:12:36;21.50;60.00
47338;DHT22;33069;51.970;5.892;2022-09-03T20:15:04;21.70;59.40
47338;DHT22;33069;51.970;5.892;2022-09-03T20:20:14;21.60;59.50
47338;DHT22;33069;51.970;5.892;2022-09-03T20:22:56;21.30;60.50
47338;DHT22;33069;51.970;5.892;2022-09-03T20:28:24;21.00;61.60
47338;DHT22;33069;51.970;5.892;2022-09-03T20:30:56;20.90;62.20
47338;DHT22;33069;51.970;5.892;2022-09-03T20:36:29;21.00;61.80
47338;DHT22;33069;51.970;5.892;2022-09-03T20:44:51;20.90;62.80
47338;DHT22;33069;51.970;5.892;2022-09-03T20:50:35;20.70;63.70
47338;DHT22;33069;51.970;5.892;2022-09-03T20:56:36;20.70;63.60
47338;DHT22;33069;51.970;5.892;2022-09-03T20:59:25;20.70;63.70
47338;DHT22;33069;51.970;5.892;2022-09-03T21:05:21;20.80;63.50
47338;DHT22;33069;51.970;5.892;2022-09-03T21:13:41;20.50;64.30
47338;DHT22;33069;51.970;5.892;2022-09-03T21:24:21;20.70;61.00
47338;DHT22;33069;51.970;5.892;2022-09-03T21:26:57;20.30;62.50
47338;DHT22;33069;51.970;5.892;2022-09-03T21:29:31;20.30;62.50
47338;DHT22;33069;51.970;5.892;2022-09-03T21:32:15;20.30;62.10
47338;DHT22;33069;51.970;5.892;2022-09-03T21:37:23;20.30;62.10
47338;DHT22;33069;51.970;5.892;2022-09-03T21:39:55;20.80;60.60
47338;DHT22;33069;51.970;5.892;2022-09-03T21:42:32;20.60;60.80
47338;DHT22;33069;51.970;5.892;2022-09-03T21:45:34;20.40;61.20
47338;DHT22;33069;51.970;5.892;2022-09-03T21:48:09;20.40;61.30
47338;DHT22;33069;51.970;5.892;2022-09-03T21:51:14;20.40;61.10
47338;DHT22;33069;51.970;5.892;2022-09-03T21:56:27;20.30;61.60
47338;DHT22;33069;51.970;5.892;2022-09-03T21:59:19;20.20;61.80
47338;DHT22;33069;51.970;5.892;2022-09-03T22:02:08;20.10;62.10
47338;DHT22;33069;51.970;5.892;2022-09-03T22:04:41;20.00;62.40
47338;DHT22;33069;51.970;5.892;2022-09-03T22:12:24;19.90;62.50